createdAt,value
2023-04-20T00:00:41.650Z,11.50
2023-04-20T00:03:08.736Z,12.73
2023-04-20T00:05:35.861Z,11.73
2023-04-20T00:08:03.162Z,11.13
2023-04-20T00:10:29.971Z,11.80
2023-04-20T00:12:56.813Z,11.57
2023-04-20T00:15:23.622Z,12.45
2023-04-20T00:17:51.680Z,11.63
2023-04-20T00:20:19.277Z,11.57
2023-04-20T00:22:46.120Z,11.43
2023-04-20T00:25:12.927Z,12.45
2023-04-20T00:27:39.850Z,11.25
2023-04-20T00:30:07.404Z,12.77
2023-04-20T00:32:34.360Z,11.85
2023-04-20T00:35:01.360Z,11.30
2023-04-20T00:37:28.733Z,10.48
2023-04-20T00:39:56.029Z,10.77
2023-04-20T00:42:24.713Z,10.90
2023-04-20T00:44:51.882Z,10.40
2023-04-20T00:47:18.754Z,10.05
2023-04-20T00:49:46.109Z,10.32
2023-04-20T00:52:13.059Z,10.05
2023-04-20T00:54:39.922Z,10.07
2023-04-20T00:57:06.893Z,9.98
2023-04-20T00:59:34.857Z,10.20
2023-04-20T01:02:01.882Z,10.00
2023-04-20T01:04:29.422Z,9.77
2023-04-20T01:06:58.516Z,9.52
2023-04-20T01:09:25.456Z,10.05
2023-04-20T01:11:52.270Z,9.38
2023-04-20T01:14:19.059Z,10.15
2023-04-20T01:16:47.314Z,10.30
2023-04-20T01:19:14.240Z,9.85
2023-04-20T01:21:41.153Z,9.90
2023-04-20T01:24:08.244Z,9.80
2023-04-20T01:26:35.136Z,9.60
2023-04-20T01:29:01.939Z,9.60
2023-04-20T01:31:28.792Z,9.25
2023-04-20T01:33:58.229Z,8.68
2023-04-20T01:36:25.360Z,9.57
2023-04-20T01:38:52.302Z,8.40
2023-04-20T01:41:19.332Z,9.65
2023-04-20T01:43:46.241Z,8.70
2023-04-20T01:46:13.100Z,8.27
2023-04-20T01:48:40.053Z,7.80
2023-04-20T01:51:08.813Z,8.77
2023-04-20T01:53:35.666Z,8.15
2023-04-20T01:56:02.513Z,8.50
2023-04-20T01:58:29.447Z,8.05
2023-04-20T02:00:56.566Z,7.75
2023-04-20T02:03:23.511Z,7.93
2023-04-20T02:05:50.881Z,7.68
2023-04-20T02:08:18.205Z,6.88
2023-04-20T02:10:45.022Z,7.60
2023-04-20T02:13:12.905Z,7.68
2023-04-20T02:15:39.735Z,7.70
2023-04-20T02:18:07.059Z,7.22
2023-04-20T02:20:33.910Z,7.47
2023-04-20T02:23:00.803Z,7.40
2023-04-20T02:25:28.135Z,7.45
2023-04-20T02:27:55.026Z,7.75
2023-04-20T02:30:21.888Z,7.15
2023-04-20T02:32:48.811Z,7.47
2023-04-20T02:35:16.392Z,7.43
2023-04-20T02:37:44.267Z,7.38
2023-04-20T02:40:12.656Z,7.85
2023-04-20T02:42:39.748Z,7.88
2023-04-20T02:45:10.066Z,7.57
2023-04-20T02:47:37.638Z,7.45
2023-04-20T02:50:05.281Z,7.55
2023-04-20T02:52:40.660Z,7.70
2023-04-20T02:55:08.251Z,7.20
2023-04-20T02:57:35.417Z,7.07
2023-04-20T03:00:02.572Z,7.07
2023-04-20T03:02:42.799Z,7.32
2023-04-20T03:05:09.833Z,7.75
2023-04-20T03:07:42.784Z,8.38
2023-04-20T03:10:11.866Z,7.32
2023-04-20T03:12:49.401Z,7.35
2023-04-20T03:15:30.523Z,7.63
2023-04-20T03:18:13.775Z,8.52
2023-04-20T03:20:41.566Z,8.18
2023-04-20T03:23:08.493Z,8.63
2023-04-20T03:25:36.256Z,8.25
2023-04-20T03:28:16.544Z,7.85
2023-04-20T03:30:43.607Z,9.00
2023-04-20T03:33:14.978Z,8.23
2023-04-20T03:35:43.209Z,8.02
2023-04-20T03:38:10.439Z,8.18
2023-04-20T03:40:37.456Z,7.97
2023-04-20T03:43:05.080Z,7.80
2023-04-20T03:45:31.988Z,8.20
2023-04-20T03:47:58.952Z,8.65
2023-04-20T03:50:27.056Z,8.77
2023-04-20T03:52:53.885Z,8.50
2023-04-20T03:55:21.075Z,8.32
2023-04-20T03:57:54.997Z,8.20
2023-04-20T04:00:22.802Z,8.02
2023-04-20T04:02:53.779Z,8.53
2023-04-20T04:07:53.283Z,7.65
2023-04-20T04:10:20.544Z,8.07
2023-04-20T04:12:49.100Z,8.60
2023-04-20T04:15:16.246Z,7.50
2023-04-20T04:17:55.370Z,7.60
2023-04-20T04:20:23.026Z,8.80
2023-04-20T04:22:52.202Z,7.60
2023-04-20T04:25:33.776Z,7.28
2023-04-20T04:28:00.878Z,7.65
2023-04-20T04:30:30.169Z,7.60
2023-04-20T04:32:57.780Z,7.53
2023-04-20T04:35:24.901Z,7.32
2023-04-20T04:37:52.907Z,7.60
2023-04-20T04:40:20.877Z,7.72
2023-04-20T04:42:52.643Z,7.20
2023-04-20T04:45:20.210Z,7.18
2023-04-20T04:47:47.304Z,7.93
2023-04-20T04:50:14.579Z,8.05
2023-04-20T04:52:41.732Z,8.18
2023-04-20T04:55:10.015Z,7.63
2023-04-20T04:57:38.776Z,8.23
2023-04-20T05:00:09.800Z,8.13
2023-04-20T05:02:37.646Z,8.03
2023-04-20T05:05:05.843Z,8.20
2023-04-20T05:07:34.341Z,7.97
2023-04-20T05:10:01.232Z,7.72
2023-04-20T05:12:28.071Z,8.52
2023-04-20T05:14:54.989Z,7.88
2023-04-20T05:17:22.102Z,8.35
2023-04-20T05:19:49.237Z,8.02
2023-04-20T05:22:16.222Z,8.25
2023-04-20T05:24:43.169Z,8.82
2023-04-20T05:27:11.394Z,8.00
2023-04-20T05:29:38.995Z,8.05
2023-04-20T05:32:06.184Z,7.75
2023-04-20T05:34:33.288Z,8.27
2023-04-20T05:37:00.350Z,7.78
2023-04-20T05:39:27.423Z,8.50
2023-04-20T05:41:54.386Z,8.50
2023-04-20T05:44:21.356Z,8.48
2023-04-20T05:46:48.542Z,8.23
2023-04-20T05:49:15.897Z,8.20
2023-04-20T05:51:43.033Z,9.23
2023-04-20T05:54:10.533Z,8.35
2023-04-20T05:56:37.617Z,7.85
2023-04-20T05:59:04.978Z,7.90
2023-04-20T06:01:32.227Z,8.38
2023-04-20T06:03:59.480Z,7.97
2023-04-20T06:06:26.725Z,8.93
2023-04-20T06:08:55.217Z,8.55
2023-04-20T06:11:22.289Z,8.57
2023-04-20T06:13:49.308Z,8.07
2023-04-20T06:16:16.338Z,8.48
2023-04-20T06:18:43.701Z,8.38
2023-04-20T06:21:11.320Z,8.55
2023-04-20T06:23:38.651Z,7.97
2023-04-20T06:26:08.871Z,8.50
2023-04-20T06:28:36.778Z,8.88
2023-04-20T06:31:04.547Z,8.52
2023-04-20T06:33:31.955Z,7.88
2023-04-20T06:35:59.302Z,8.20
2023-04-20T06:38:26.312Z,7.72
2023-04-20T06:40:53.233Z,7.43
2023-04-20T06:43:20.197Z,7.05
2023-04-20T06:45:47.162Z,8.68
2023-04-20T06:48:30.001Z,8.10
2023-04-20T06:50:58.991Z,8.27
2023-04-20T06:53:26.306Z,7.60
2023-04-20T06:55:56.929Z,8.32
2023-04-20T06:58:23.920Z,7.88
2023-04-20T07:00:51.152Z,7.32
2023-04-20T07:03:19.462Z,8.20
2023-04-20T07:05:46.786Z,7.75
2023-04-20T07:08:15.911Z,8.13
2023-04-20T07:10:43.262Z,8.63
2023-04-20T07:13:10.348Z,7.65
2023-04-20T07:15:37.329Z,8.50
2023-04-20T07:18:04.470Z,8.15
2023-04-20T07:20:31.560Z,7.95
2023-04-20T07:22:58.440Z,8.32
2023-04-20T07:25:25.928Z,8.52
2023-04-20T07:27:53.059Z,8.27
2023-04-20T07:30:20.020Z,7.65
2023-04-20T07:32:47.074Z,8.05
2023-04-20T07:35:13.991Z,7.97
2023-04-20T07:37:41.329Z,7.65
2023-04-20T07:40:08.942Z,8.45
2023-04-20T07:42:39.406Z,8.30
2023-04-20T07:45:07.143Z,7.50
2023-04-20T07:47:35.357Z,7.60
2023-04-20T07:50:03.237Z,7.75
2023-04-20T07:52:31.413Z,8.18
2023-04-20T07:54:59.877Z,7.95
2023-04-20T07:57:28.165Z,7.70
2023-04-20T07:59:55.260Z,7.82
2023-04-20T08:02:22.339Z,7.88
2023-04-20T08:04:50.346Z,7.85
2023-04-20T08:07:18.073Z,7.60
2023-04-20T08:09:44.999Z,8.25
2023-04-20T08:12:11.991Z,7.90
2023-04-20T08:14:39.574Z,7.85
2023-04-20T08:17:06.557Z,8.10
2023-04-20T08:19:33.604Z,7.72
2023-04-20T08:22:01.444Z,7.60
2023-04-20T08:24:29.526Z,8.90
2023-04-20T08:26:56.776Z,7.57
2023-04-20T08:29:23.752Z,8.10
2023-04-20T08:31:51.835Z,8.35
2023-04-20T08:34:19.144Z,7.93
2023-04-20T08:36:46.543Z,8.32
2023-04-20T08:39:18.680Z,8.00
2023-04-20T08:41:45.695Z,8.02
2023-04-20T08:44:12.935Z,9.10
2023-04-20T08:46:42.057Z,9.00
2023-04-20T08:49:12.090Z,8.48
2023-04-20T08:51:43.404Z,8.20
2023-04-20T08:54:11.562Z,8.77
2023-04-20T08:56:40.877Z,8.93
2023-04-20T08:59:10.390Z,9.32
2023-04-20T09:01:39.601Z,8.70
2023-04-20T09:04:25.120Z,7.93
2023-04-20T09:06:54.703Z,7.72
2023-04-20T09:09:23.366Z,8.05
2023-04-20T09:12:10.514Z,7.60
2023-04-20T09:14:44.662Z,8.20
2023-04-20T09:17:14.622Z,7.28
2023-04-20T09:19:44.441Z,8.20
2023-04-20T09:22:11.344Z,7.50
2023-04-20T09:24:40.036Z,8.15
2023-04-20T09:27:17.426Z,7.20
2023-04-20T09:29:44.847Z,8.38
2023-04-20T09:32:33.025Z,8.20
2023-04-20T09:35:00.044Z,8.85
2023-04-20T09:37:27.126Z,7.80
2023-04-20T09:39:59.301Z,8.15
2023-04-20T09:42:28.348Z,7.90
2023-04-20T09:44:56.176Z,8.65
2023-04-20T09:47:23.120Z,7.80
2023-04-20T09:49:50.576Z,8.27
2023-04-20T09:52:18.861Z,8.13
2023-04-20T09:54:46.386Z,8.40
2023-04-20T09:57:14.315Z,8.40
2023-04-20T09:59:43.800Z,8.02
2023-04-20T10:02:12.690Z,7.85
2023-04-20T10:04:55.436Z,7.55
2023-04-20T10:07:27.217Z,8.40
2023-04-20T10:12:50.106Z,8.57
2023-04-20T10:15:17.417Z,8.70
2023-04-20T10:17:44.938Z,7.50
2023-04-20T10:20:20.951Z,8.45
2023-04-20T10:22:48.045Z,8.48
2023-04-20T10:25:17.473Z,8.57
2023-04-20T10:28:06.295Z,8.52
2023-04-20T10:30:34.169Z,8.85
2023-04-20T10:33:06.565Z,8.88
2023-04-20T10:35:55.361Z,8.73
2023-04-20T10:38:34.394Z,9.15
2023-04-20T10:41:11.795Z,8.50
2023-04-20T10:43:44.952Z,8.60
2023-04-20T10:46:25.042Z,8.70
2023-04-20T10:48:55.178Z,8.35
2023-04-20T10:51:22.951Z,8.68
2023-04-20T10:54:09.693Z,7.93
2023-04-20T10:56:43.043Z,8.02
2023-04-20T10:59:11.931Z,8.13
2023-04-20T11:01:39.073Z,7.78
2023-04-20T11:04:07.249Z,7.88
2023-04-20T11:06:35.205Z,8.05
2023-04-20T11:09:02.496Z,7.68
2023-04-20T11:11:29.633Z,7.80
2023-04-20T11:14:08.097Z,7.30
2023-04-20T11:16:48.003Z,8.25
2023-04-20T11:19:27.252Z,7.35
2023-04-20T11:21:54.406Z,8.00
2023-04-20T11:24:22.385Z,7.72
2023-04-20T11:26:50.519Z,8.80
2023-04-20T11:29:38.884Z,7.07
2023-04-20T11:32:10.725Z,7.78
2023-04-20T11:37:10.499Z,7.13
2023-04-20T11:39:38.035Z,6.30
2023-04-20T11:42:05.621Z,7.07
2023-04-20T11:44:33.039Z,6.38
2023-04-20T11:47:00.067Z,6.47
2023-04-20T11:49:28.988Z,6.20
2023-04-20T11:51:56.151Z,6.72
2023-04-20T11:54:24.511Z,5.78
2023-04-20T11:56:51.506Z,6.07
2023-04-20T11:59:20.533Z,6.25
2023-04-20T12:01:48.299Z,7.07
2023-04-20T12:04:16.744Z,5.78
2023-04-20T12:06:44.137Z,6.55
2023-04-20T12:09:11.008Z,6.43
2023-04-20T12:11:37.943Z,6.15
2023-04-20T12:14:05.269Z,6.07
2023-04-20T12:16:32.549Z,5.30
2023-04-20T12:18:59.576Z,6.45
2023-04-20T12:21:27.423Z,6.15
2023-04-20T12:23:54.442Z,6.47
2023-04-20T12:26:25.289Z,6.45
2023-04-20T12:28:58.841Z,6.30
2023-04-20T12:31:26.643Z,5.78
2023-04-20T12:33:53.684Z,6.43
2023-04-20T12:36:20.561Z,6.60
2023-04-20T12:38:47.383Z,6.22
2023-04-20T12:41:15.279Z,6.95
2023-04-20T12:43:42.202Z,6.25
2023-04-20T12:46:09.239Z,6.90
2023-04-20T12:48:36.202Z,6.43
2023-04-20T12:51:03.627Z,5.68
2023-04-20T12:53:30.535Z,6.55
2023-04-20T12:56:01.096Z,5.93
2023-04-20T12:58:28.641Z,7.00
2023-04-20T13:00:55.488Z,6.43
2023-04-20T13:03:22.712Z,7.40
2023-04-20T13:05:49.714Z,6.93
2023-04-20T13:08:16.803Z,7.68
2023-04-20T13:10:43.782Z,6.70
2023-04-20T13:13:11.255Z,7.38
2023-04-20T13:15:39.465Z,7.68
2023-04-20T13:18:06.911Z,7.45
2023-04-20T13:20:33.855Z,7.32
2023-04-20T13:23:01.490Z,7.43
2023-04-20T13:25:30.017Z,7.80
2023-04-20T13:27:56.904Z,7.43
2023-04-20T13:30:24.777Z,7.28
2023-04-20T13:32:52.095Z,8.00
2023-04-20T13:35:19.189Z,7.25
2023-04-20T13:37:46.244Z,7.95
2023-04-20T13:40:13.473Z,7.43
2023-04-20T13:42:40.529Z,8.25
2023-04-20T13:45:08.306Z,7.18
2023-04-20T13:47:35.252Z,7.15
2023-04-20T13:50:03.665Z,7.40
2023-04-20T13:52:30.758Z,7.60
2023-04-20T13:54:57.656Z,7.93
2023-04-20T13:57:24.507Z,7.63
2023-04-20T13:59:51.344Z,7.88
2023-04-20T14:02:18.336Z,6.75
2023-04-20T14:04:45.236Z,7.82
2023-04-20T14:07:12.199Z,6.70
2023-04-20T14:09:39.020Z,7.22
2023-04-20T14:12:06.008Z,6.97
2023-04-20T14:14:32.965Z,6.90
2023-04-20T14:16:59.833Z,6.65
2023-04-20T14:19:26.648Z,6.90
2023-04-20T14:21:53.770Z,6.38
2023-04-20T14:24:20.738Z,7.63
2023-04-20T14:26:47.907Z,6.60
2023-04-20T14:29:14.878Z,7.43
2023-04-20T14:31:41.716Z,6.60
2023-04-20T14:34:09.532Z,6.60
2023-04-20T14:36:36.476Z,6.60
2023-04-20T14:39:03.391Z,6.50
2023-04-20T14:41:32.952Z,6.05
2023-04-20T14:44:00.472Z,6.40
2023-04-20T14:46:27.437Z,6.25
2023-04-20T14:48:54.363Z,6.47
2023-04-20T14:51:21.254Z,6.10
2023-04-20T14:53:48.091Z,6.05
2023-04-20T14:56:15.304Z,5.82
2023-04-20T14:58:42.540Z,5.78
2023-04-20T15:01:09.413Z,5.72
2023-04-20T15:03:36.566Z,6.03
2023-04-20T15:06:03.754Z,5.55
2023-04-20T15:08:30.744Z,5.95
2023-04-20T15:10:57.576Z,6.03
2023-04-20T15:13:25.021Z,5.20
2023-04-20T15:15:55.084Z,5.95
2023-04-20T15:18:22.482Z,6.05
2023-04-20T15:20:52.543Z,5.85
2023-04-20T15:23:19.859Z,5.97
2023-04-20T15:25:46.926Z,5.53
2023-04-20T15:28:14.339Z,5.68
2023-04-20T15:30:41.779Z,5.80
2023-04-20T15:33:08.916Z,5.80
2023-04-20T15:35:35.858Z,6.05
2023-04-20T15:38:03.474Z,5.68
2023-04-20T15:40:30.482Z,11.02
2023-04-20T15:42:57.460Z,5.68
2023-04-20T15:45:24.782Z,13.60
2023-04-20T15:47:51.884Z,9.18
2023-04-20T15:50:19.067Z,12.68
2023-04-20T15:52:49.716Z,11.48
2023-04-20T15:55:17.151Z,7.63
2023-04-20T15:57:44.850Z,6.22
2023-04-20T16:00:12.599Z,5.90
2023-04-20T16:02:40.968Z,5.50
2023-04-20T16:05:09.184Z,6.47
2023-04-20T16:07:36.164Z,7.22
2023-04-20T16:10:03.300Z,6.82
2023-04-20T16:12:30.148Z,6.53
2023-04-20T16:14:57.458Z,7.45
2023-04-20T16:17:24.484Z,5.95
2023-04-20T16:19:51.640Z,6.53
2023-04-20T16:22:18.634Z,8.25
2023-04-20T16:24:45.615Z,6.00
2023-04-20T16:27:12.440Z,6.40
2023-04-20T16:29:39.385Z,5.85
2023-04-20T16:32:06.489Z,5.32
2023-04-20T16:34:33.387Z,5.55
2023-04-20T16:37:00.257Z,5.60
2023-04-20T16:39:27.106Z,4.90
2023-04-20T16:41:54.292Z,5.05
2023-04-20T16:44:21.311Z,5.18
2023-04-20T16:46:51.510Z,5.00
2023-04-20T16:49:18.608Z,5.25
2023-04-20T16:51:45.467Z,5.50
2023-04-20T16:54:16.396Z,5.78
2023-04-20T16:56:43.601Z,6.18
2023-04-20T16:59:10.490Z,6.38
2023-04-20T17:01:37.508Z,4.85
2023-04-20T17:04:04.612Z,5.70
2023-04-20T17:06:32.299Z,4.63
2023-04-20T17:09:06.131Z,4.82
2023-04-20T17:11:36.014Z,4.63
2023-04-20T17:14:03.436Z,4.97
2023-04-20T17:16:30.425Z,4.90
2023-04-20T17:18:57.474Z,4.80
2023-04-20T17:21:24.340Z,4.97
2023-04-20T17:23:51.398Z,4.40
2023-04-20T17:26:18.393Z,5.00
2023-04-20T17:28:46.434Z,4.75
2023-04-20T17:31:13.712Z,4.00
2023-04-20T17:33:40.602Z,4.80
2023-04-20T17:36:07.687Z,4.53
2023-04-20T17:38:36.729Z,4.78
2023-04-20T17:41:03.803Z,4.60
2023-04-20T17:43:30.987Z,4.70
2023-04-20T17:46:01.102Z,4.93
2023-04-20T17:48:28.064Z,4.28
2023-04-20T17:50:55.915Z,3.97
2023-04-20T17:53:24.377Z,4.05
2023-04-20T17:55:51.185Z,4.80
2023-04-20T17:58:18.077Z,4.65
2023-04-20T18:00:45.096Z,5.30
2023-04-20T18:03:14.828Z,5.15
2023-04-20T18:05:42.505Z,4.63
2023-04-20T18:08:10.326Z,4.43
2023-04-20T18:10:37.717Z,4.18
2023-04-20T18:13:05.054Z,4.28
2023-04-20T18:15:32.001Z,4.30
2023-04-20T18:17:58.978Z,3.92
2023-04-20T18:20:26.254Z,4.38
2023-04-20T18:22:53.198Z,4.03
2023-04-20T18:25:20.343Z,4.53
2023-04-20T18:27:47.170Z,4.38
2023-04-20T18:30:17.088Z,4.47
2023-04-20T18:35:23.445Z,4.95
2023-04-20T18:37:54.769Z,4.90
2023-04-20T18:40:26.182Z,4.22
2023-04-20T18:42:58.126Z,4.53
2023-04-20T18:45:27.276Z,4.57
2023-04-20T18:48:00.245Z,3.85
2023-04-20T18:50:36.048Z,4.07
2023-04-20T18:53:06.614Z,4.30
2023-04-20T18:55:35.881Z,4.35
2023-04-20T18:58:06.573Z,4.20
2023-04-20T19:00:38.311Z,3.90
2023-04-20T19:03:06.325Z,3.78
2023-04-20T19:05:34.375Z,3.95
2023-04-20T19:08:02.132Z,3.72
2023-04-20T19:10:34.212Z,3.78
2023-04-20T19:13:05.383Z,3.58
2023-04-20T19:15:35.343Z,3.72
2023-04-20T19:18:04.650Z,4.32
2023-04-20T19:20:39.318Z,4.00
2023-04-20T19:23:10.744Z,3.90
2023-04-20T19:25:42.016Z,3.50
2023-04-20T19:28:15.443Z,3.97
2023-04-20T19:30:44.403Z,3.35
2023-04-20T19:33:12.701Z,3.67
2023-04-20T19:35:44.259Z,3.63
2023-04-20T19:38:13.208Z,3.77
2023-04-20T19:40:44.786Z,3.17
2023-04-20T19:46:02.708Z,3.67
2023-04-20T19:48:32.992Z,3.70
2023-04-20T19:51:06.826Z,3.88
2023-04-20T19:53:35.241Z,3.78
2023-04-20T19:56:07.185Z,3.60
2023-04-20T19:58:36.100Z,3.55
2023-04-20T20:01:07.628Z,3.85
2023-04-20T20:03:38.123Z,3.33
2023-04-20T20:06:08.538Z,4.20
2023-04-20T20:08:38.530Z,3.50
2023-04-20T20:11:06.889Z,3.50
2023-04-20T20:13:34.622Z,3.80
2023-04-20T20:16:01.875Z,3.67
2023-04-20T20:18:28.888Z,3.42
2023-04-20T20:20:55.948Z,3.47
2023-04-20T20:23:22.903Z,4.00
2023-04-20T20:25:49.744Z,3.72
2023-04-20T20:28:16.688Z,3.30
2023-04-20T20:30:45.396Z,3.30
2023-04-20T20:33:12.924Z,2.80
2023-04-20T20:35:40.035Z,3.42
2023-04-20T20:38:08.001Z,3.45
2023-04-20T20:40:35.882Z,3.42
2023-04-20T20:43:03.924Z,3.60
2023-04-20T20:45:31.887Z,4.13
2023-04-20T20:47:59.252Z,4.47
2023-04-20T20:50:27.942Z,4.63
2023-04-20T20:52:55.060Z,4.57
2023-04-20T20:55:21.987Z,4.97
2023-04-20T20:57:48.912Z,5.53
2023-04-20T21:00:16.259Z,6.00
2023-04-20T21:02:43.457Z,5.78
2023-04-20T21:05:10.752Z,5.60
2023-04-20T21:07:37.929Z,6.53
2023-04-20T21:10:05.683Z,5.85
2023-04-20T21:12:32.613Z,5.70
2023-04-20T21:14:59.522Z,5.40
2023-04-20T21:17:26.889Z,5.18
2023-04-20T21:19:53.868Z,4.97
2023-04-20T21:22:22.738Z,4.72
2023-04-20T21:24:49.751Z,4.47
2023-04-20T21:27:16.609Z,5.10
2023-04-20T21:29:43.535Z,4.63
2023-04-20T21:32:10.547Z,4.65
2023-04-20T21:34:37.451Z,5.13
2023-04-20T21:37:05.717Z,4.80
2023-04-20T21:39:32.830Z,5.25
2023-04-20T21:41:59.999Z,4.53
2023-04-20T21:44:27.436Z,4.53
2023-04-20T21:46:54.386Z,4.45
2023-04-20T21:49:21.488Z,4.97
2023-04-20T21:51:48.741Z,4.82
2023-04-20T21:54:15.687Z,4.40
2023-04-20T21:56:42.616Z,4.50
2023-04-20T21:59:09.523Z,5.22
2023-04-20T22:01:36.411Z,4.75
2023-04-20T22:04:04.791Z,5.30
2023-04-20T22:06:32.752Z,4.63
2023-04-20T22:08:59.625Z,4.80
2023-04-20T22:11:26.535Z,4.28
2023-04-20T22:13:53.700Z,4.20
2023-04-20T22:16:21.946Z,3.80
2023-04-20T22:18:49.746Z,4.18
2023-04-20T22:21:16.613Z,4.30
2023-04-20T22:23:43.470Z,3.90
2023-04-20T22:26:10.525Z,4.47
2023-04-20T22:28:37.431Z,4.57
2023-04-20T22:31:04.589Z,4.38
2023-04-20T22:33:31.514Z,4.00
2023-04-20T22:35:58.422Z,3.80
2023-04-20T22:38:25.724Z,3.80
2023-04-20T22:40:53.799Z,4.03
2023-04-20T22:43:21.642Z,4.45
2023-04-20T22:45:48.936Z,4.32
2023-04-20T22:48:15.791Z,3.97
2023-04-20T22:50:42.691Z,4.05
2023-04-20T22:53:09.575Z,3.42
2023-04-20T22:55:36.412Z,3.42
2023-04-20T22:58:03.273Z,4.60
2023-04-20T23:00:30.210Z,4.35
2023-04-20T23:02:57.299Z,3.67
2023-04-20T23:05:24.575Z,3.55
2023-04-20T23:07:53.855Z,3.47
2023-04-20T23:10:21.086Z,4.22
2023-04-20T23:12:49.162Z,4.03
2023-04-20T23:15:16.138Z,3.95
2023-04-20T23:17:43.135Z,3.75
2023-04-20T23:20:11.046Z,3.67
2023-04-20T23:22:37.971Z,3.70
2023-04-20T23:25:05.080Z,3.65
2023-04-20T23:27:31.958Z,3.30
2023-04-20T23:29:58.827Z,4.30
2023-04-20T23:32:26.087Z,3.92
2023-04-20T23:34:53.051Z,3.85
2023-04-20T23:37:19.825Z,3.90
2023-04-20T23:39:46.652Z,3.55
2023-04-20T23:42:13.524Z,3.72
2023-04-20T23:44:40.564Z,3.58
2023-04-20T23:47:07.359Z,3.65
2023-04-20T23:49:34.266Z,3.85
2023-04-20T23:52:01.188Z,3.30
2023-04-20T23:54:29.107Z,3.38
2023-04-20T23:56:56.331Z,3.55
2023-04-20T23:59:23.165Z,3.40
